createdAt,value
2017-06-24T00:00:30.288Z,18.90
2017-06-24T00:02:59.251Z,18.90
2017-06-24T00:05:27.439Z,18.90
2017-06-24T00:07:55.660Z,19.00
2017-06-24T00:10:23.875Z,18.80
2017-06-24T00:12:52.057Z,18.30
2017-06-24T00:15:20.274Z,17.80
2017-06-24T00:17:48.466Z,17.60
2017-06-24T00:20:16.658Z,17.50
2017-06-24T00:22:44.879Z,17.40
2017-06-24T00:25:13.075Z,17.30
2017-06-24T00:27:41.242Z,17.20
2017-06-24T00:30:09.638Z,17.10
2017-06-24T00:32:37.847Z,17.00
2017-06-24T00:35:06.046Z,16.60
2017-06-24T00:37:35.100Z,16.60
2017-06-24T00:40:03.297Z,16.60
2017-06-24T00:42:31.510Z,16.40
2017-06-24T00:44:59.878Z,16.30
2017-06-24T00:47:28.087Z,16.50
2017-06-24T00:49:56.267Z,16.50
2017-06-24T00:52:24.509Z,16.50
2017-06-24T00:54:52.735Z,16.40
2017-06-24T00:57:20.911Z,16.30
2017-06-24T00:59:49.132Z,16.20
2017-06-24T01:02:17.309Z,16.40
2017-06-24T01:04:45.502Z,16.40
2017-06-24T01:07:13.744Z,16.60
2017-06-24T01:09:41.936Z,16.60
2017-06-24T01:12:10.100Z,16.50
2017-06-24T01:14:38.435Z,16.40
2017-06-24T01:17:06.626Z,16.40
2017-06-24T01:19:35.595Z,16.30
2017-06-24T01:22:03.826Z,16.30
2017-06-24T01:24:32.025Z,16.30
2017-06-24T01:27:00.194Z,16.40
2017-06-24T01:29:28.440Z,16.30
2017-06-24T01:31:56.671Z,16.20
2017-06-24T01:34:25.623Z,16.20
2017-06-24T01:36:53.888Z,16.20
2017-06-24T01:39:22.155Z,16.40
2017-06-24T01:41:50.354Z,16.40
2017-06-24T01:44:18.696Z,16.50
2017-06-24T01:46:46.948Z,16.50
2017-06-24T01:49:15.879Z,16.40
2017-06-24T01:51:44.076Z,16.40
2017-06-24T01:54:12.296Z,16.50
2017-06-24T01:56:40.658Z,16.60
2017-06-24T01:59:09.601Z,16.60
2017-06-24T02:01:37.777Z,16.60
2017-06-24T02:04:06.031Z,16.60
2017-06-24T02:06:34.210Z,16.50
2017-06-24T02:09:02.368Z,16.60
2017-06-24T02:11:30.570Z,16.70
2017-06-24T02:13:58.739Z,16.80
2017-06-24T02:16:26.916Z,16.80
2017-06-24T02:18:55.135Z,16.60
2017-06-24T02:21:24.091Z,16.60
2017-06-24T02:23:52.290Z,16.60
2017-06-24T02:26:21.297Z,16.60
2017-06-24T02:28:50.247Z,16.60
2017-06-24T02:31:18.494Z,16.60
2017-06-24T02:33:46.703Z,16.60
2017-06-24T02:36:14.885Z,16.70
2017-06-24T02:38:43.842Z,16.80
2017-06-24T02:41:12.093Z,16.70
2017-06-24T02:43:40.283Z,16.80
2017-06-24T02:46:08.515Z,16.70
2017-06-24T02:48:37.475Z,16.80
2017-06-24T02:51:05.796Z,16.80
2017-06-24T02:53:34.015Z,16.90
2017-06-24T02:56:02.189Z,16.60
2017-06-24T02:58:30.356Z,16.40
2017-06-24T03:00:58.547Z,16.50
2017-06-24T03:03:26.707Z,16.60
2017-06-24T03:05:54.886Z,16.50
2017-06-24T03:08:23.079Z,16.40
2017-06-24T03:10:51.500Z,16.40
2017-06-24T03:13:19.680Z,16.40
2017-06-24T03:15:47.859Z,16.30
2017-06-24T03:18:16.124Z,16.20
2017-06-24T03:20:44.279Z,16.20
2017-06-24T03:23:12.476Z,16.10
2017-06-24T03:25:40.693Z,16.10
2017-06-24T03:28:08.953Z,16.20
2017-06-24T03:30:37.120Z,16.20
2017-06-24T03:33:05.339Z,16.10
2017-06-24T03:35:34.383Z,16.10
2017-06-24T03:38:02.744Z,16.10
2017-06-24T03:40:30.913Z,16.10
2017-06-24T03:42:59.129Z,16.20
2017-06-24T03:45:27.393Z,16.30
2017-06-24T03:47:55.639Z,16.30
2017-06-24T03:50:23.988Z,16.40
2017-06-24T03:52:52.241Z,16.60
2017-06-24T03:55:21.178Z,16.60
2017-06-24T03:57:49.353Z,16.60
2017-06-24T04:00:17.556Z,16.70
2017-06-24T04:02:45.821Z,16.60
2017-06-24T04:05:14.108Z,16.70
2017-06-24T04:07:42.412Z,16.70
2017-06-24T04:10:11.378Z,16.80
2017-06-24T04:12:39.552Z,16.70
2017-06-24T04:15:07.756Z,16.80
2017-06-24T04:17:36.745Z,17.50
2017-06-24T04:20:05.692Z,17.90
2017-06-24T04:22:33.931Z,17.90
2017-06-24T04:25:02.124Z,18.50
2017-06-24T04:27:30.377Z,18.90
2017-06-24T04:29:59.334Z,19.90
2017-06-24T04:32:27.516Z,19.80
2017-06-24T04:34:56.489Z,20.80
2017-06-24T04:37:24.707Z,20.80
2017-06-24T04:39:52.902Z,21.00
2017-06-24T04:42:21.085Z,20.60
2017-06-24T04:44:49.334Z,21.20
2017-06-24T04:47:17.526Z,21.90
2017-06-24T04:49:45.683Z,21.50
2017-06-24T04:52:13.902Z,20.10
2017-06-24T04:54:42.302Z,19.70
2017-06-24T04:57:10.615Z,19.60
2017-06-24T04:59:38.827Z,19.90
2017-06-24T05:02:07.080Z,20.50
2017-06-24T05:04:35.286Z,20.80
2017-06-24T05:07:03.489Z,20.60
2017-06-24T05:09:31.660Z,20.60
2017-06-24T05:11:59.883Z,20.90
2017-06-24T05:14:28.059Z,21.00
2017-06-24T05:16:56.261Z,21.20
2017-06-24T05:19:24.474Z,21.10
2017-06-24T05:21:52.637Z,21.00
2017-06-24T05:24:20.813Z,20.20
2017-06-24T05:26:49.023Z,20.60
2017-06-24T05:29:17.232Z,21.50
2017-06-24T05:31:45.409Z,22.00
2017-06-24T05:34:14.379Z,21.90
2017-06-24T05:36:42.583Z,21.90
2017-06-24T05:39:10.787Z,22.60
2017-06-24T05:41:39.137Z,22.20
2017-06-24T05:44:07.436Z,22.30
2017-06-24T05:46:35.613Z,22.10
2017-06-24T05:49:03.824Z,21.80
2017-06-24T05:51:32.004Z,22.10
2017-06-24T05:54:00.175Z,22.00
2017-06-24T05:56:28.580Z,20.80
2017-06-24T05:58:56.755Z,20.20
2017-06-24T06:01:24.958Z,19.50
2017-06-24T06:03:53.186Z,19.20
2017-06-24T06:06:21.407Z,18.90
2017-06-24T06:08:49.580Z,19.40
2017-06-24T06:11:17.784Z,19.30
2017-06-24T06:13:46.013Z,19.40
2017-06-24T06:16:14.190Z,19.60
2017-06-24T06:18:42.391Z,19.70
2017-06-24T06:21:10.583Z,19.50
2017-06-24T06:23:38.764Z,19.10
2017-06-24T06:26:07.009Z,19.00
2017-06-24T06:28:35.233Z,19.40
2017-06-24T06:31:04.183Z,18.90
2017-06-24T06:33:32.356Z,18.90
2017-06-24T06:36:00.911Z,19.00
2017-06-24T06:38:29.109Z,18.90
2017-06-24T06:40:57.309Z,18.90
2017-06-24T06:43:25.486Z,18.70
2017-06-24T06:45:54.432Z,18.70
2017-06-24T06:48:23.005Z,18.70
2017-06-24T06:50:51.233Z,18.90
2017-06-24T06:53:19.417Z,19.10
2017-06-24T06:55:48.405Z,19.00
2017-06-24T06:58:17.368Z,18.70
2017-06-24T07:00:45.692Z,18.70
2017-06-24T07:03:14.260Z,18.70
2017-06-24T07:05:43.219Z,18.60
2017-06-24T07:08:11.389Z,18.60
2017-06-24T07:10:39.733Z,18.90
2017-06-24T07:13:08.031Z,19.10
2017-06-24T07:15:36.237Z,19.10
2017-06-24T07:18:04.407Z,19.70
2017-06-24T07:20:33.454Z,19.90
2017-06-24T07:23:01.673Z,19.90
2017-06-24T07:25:29.863Z,20.00
2017-06-24T07:27:58.874Z,20.10
2017-06-24T07:30:27.075Z,20.10
2017-06-24T07:32:55.255Z,20.20
2017-06-24T07:35:23.488Z,20.40
2017-06-24T07:37:51.681Z,20.90
2017-06-24T07:40:21.076Z,20.60
2017-06-24T07:42:49.318Z,20.40
2017-06-24T07:45:18.358Z,20.10
2017-06-24T07:47:46.541Z,20.10
2017-06-24T07:50:14.962Z,20.10
2017-06-24T07:52:43.922Z,19.70
2017-06-24T07:55:12.103Z,19.70
2017-06-24T07:57:40.781Z,20.10
2017-06-24T08:00:08.990Z,19.90
2017-06-24T08:02:37.967Z,20.80
2017-06-24T08:05:06.188Z,20.80
2017-06-24T08:07:34.373Z,21.00
2017-06-24T08:10:02.577Z,21.30
2017-06-24T08:12:30.772Z,21.40
2017-06-24T08:14:59.752Z,20.70
2017-06-24T08:17:29.254Z,20.70
2017-06-24T08:19:57.528Z,20.70
2017-06-24T08:22:25.755Z,20.80
2017-06-24T08:24:53.953Z,21.10
2017-06-24T08:27:22.144Z,21.20
2017-06-24T08:29:50.403Z,21.20
2017-06-24T08:32:18.702Z,21.10
2017-06-24T08:34:47.847Z,21.50
2017-06-24T08:37:16.296Z,21.50
2017-06-24T08:39:44.482Z,21.80
2017-06-24T08:42:12.742Z,22.50
2017-06-24T08:44:41.710Z,22.30
2017-06-24T08:47:10.044Z,22.30
2017-06-24T08:49:38.272Z,22.70
2017-06-24T08:52:07.243Z,22.60
2017-06-24T08:54:35.405Z,22.60
2017-06-24T08:57:03.653Z,23.60
2017-06-24T08:59:31.943Z,23.50
2017-06-24T09:02:00.208Z,23.30
2017-06-24T09:04:28.470Z,22.70
2017-06-24T09:06:56.643Z,22.90
2017-06-24T09:09:24.829Z,22.20
2017-06-24T09:11:53.211Z,22.40
2017-06-24T09:14:21.505Z,22.70
2017-06-24T09:16:49.715Z,22.70
2017-06-24T09:19:18.684Z,24.10
2017-06-24T09:21:46.954Z,24.10
2017-06-24T09:24:15.150Z,24.30
2017-06-24T09:26:44.290Z,24.10
2017-06-24T09:29:12.501Z,24.10
2017-06-24T09:31:40.708Z,23.60
2017-06-24T09:34:09.092Z,23.50
2017-06-24T09:36:37.261Z,24.10
2017-06-24T09:39:05.447Z,24.20
2017-06-24T09:41:33.693Z,24.10
2017-06-24T09:44:02.737Z,24.30
2017-06-24T09:46:31.007Z,24.20
2017-06-24T09:48:59.324Z,24.40
2017-06-24T09:51:27.539Z,24.40
2017-06-24T09:53:55.735Z,24.10
2017-06-24T09:56:23.935Z,23.40
2017-06-24T09:58:52.163Z,23.30
2017-06-24T10:01:20.356Z,23.30
2017-06-24T10:03:48.573Z,23.30
2017-06-24T10:06:16.916Z,23.30
2017-06-24T10:08:45.171Z,23.30
2017-06-24T10:11:13.825Z,23.20
2017-06-24T10:13:42.014Z,23.20
2017-06-24T10:16:10.295Z,23.40
2017-06-24T10:18:38.519Z,23.80
2017-06-24T10:21:06.705Z,24.00
2017-06-24T10:23:35.693Z,23.80
2017-06-24T10:26:03.945Z,23.70
2017-06-24T10:28:32.137Z,23.60
2017-06-24T10:31:00.364Z,23.60
2017-06-24T10:33:28.784Z,23.50
2017-06-24T10:35:56.990Z,23.70
2017-06-24T10:38:25.928Z,24.20
2017-06-24T10:40:54.164Z,24.20
2017-06-24T10:43:22.568Z,24.30
2017-06-24T10:45:50.777Z,24.50
2017-06-24T10:48:19.083Z,24.50
2017-06-24T10:50:47.307Z,24.90
2017-06-24T10:53:15.652Z,24.80
2017-06-24T10:55:43.866Z,24.60
2017-06-24T10:58:12.039Z,24.80
2017-06-24T11:00:40.240Z,24.60
2017-06-24T11:03:09.579Z,25.00
2017-06-24T11:05:37.811Z,25.00
2017-06-24T11:08:06.847Z,24.80
2017-06-24T11:10:35.079Z,24.70
2017-06-24T11:13:04.050Z,24.40
2017-06-24T11:15:32.400Z,24.40
2017-06-24T11:18:00.830Z,24.70
2017-06-24T11:20:29.871Z,25.20
2017-06-24T11:22:58.157Z,25.20
2017-06-24T11:25:26.454Z,25.00
2017-06-24T11:27:54.666Z,25.00
2017-06-24T11:30:22.869Z,25.00
2017-06-24T11:32:51.143Z,25.40
2017-06-24T11:35:19.351Z,25.40
2017-06-24T11:37:48.408Z,25.10
2017-06-24T11:40:16.749Z,25.10
2017-06-24T11:42:45.721Z,25.70
2017-06-24T11:45:13.928Z,25.60
2017-06-24T11:47:42.116Z,25.70
2017-06-24T11:50:10.293Z,25.50
2017-06-24T11:52:38.514Z,25.50
2017-06-24T11:55:07.485Z,25.40
2017-06-24T11:57:35.680Z,25.40
2017-06-24T12:00:04.676Z,25.90
2017-06-24T12:02:33.785Z,26.20
2017-06-24T12:05:01.982Z,26.20
2017-06-24T12:07:30.200Z,25.80
2017-06-24T12:09:58.386Z,25.70
2017-06-24T12:12:27.383Z,26.10
2017-06-24T12:14:56.383Z,26.30
2017-06-24T12:17:24.590Z,26.30
2017-06-24T12:19:52.785Z,26.40
2017-06-24T12:22:22.013Z,26.20
2017-06-24T12:24:51.007Z,26.30
2017-06-24T12:27:19.952Z,25.80
2017-06-24T12:29:48.195Z,25.70
2017-06-24T12:32:17.139Z,26.20
2017-06-24T12:34:45.353Z,26.20
2017-06-24T12:37:13.531Z,26.60
2017-06-24T12:39:41.941Z,26.50
2017-06-24T12:42:10.271Z,26.30
2017-06-24T12:44:39.270Z,25.60
2017-06-24T12:47:08.196Z,25.90
2017-06-24T12:49:36.469Z,25.90
2017-06-24T12:52:04.637Z,25.90
2017-06-24T12:54:32.828Z,25.90
2017-06-24T12:57:01.321Z,26.00
2017-06-24T12:59:29.509Z,26.40
2017-06-24T13:01:57.755Z,26.40
2017-06-24T13:04:26.017Z,26.30
2017-06-24T13:06:54.218Z,26.50
2017-06-24T13:09:22.551Z,26.40
2017-06-24T13:11:50.772Z,26.10
2017-06-24T13:14:19.181Z,26.00
2017-06-24T13:16:48.208Z,26.80
2017-06-24T13:19:16.643Z,26.80
2017-06-24T13:21:44.879Z,27.00
2017-06-24T13:24:13.047Z,26.60
2017-06-24T13:26:41.393Z,26.50
2017-06-24T13:29:09.608Z,26.50
2017-06-24T13:31:37.787Z,26.30
2017-06-24T13:34:06.346Z,26.00
2017-06-24T13:36:34.503Z,26.40
2017-06-24T13:39:02.710Z,26.00
2017-06-24T13:41:30.928Z,26.00
2017-06-24T13:43:59.111Z,25.70
2017-06-24T13:46:27.391Z,26.10
2017-06-24T13:48:55.620Z,26.60
2017-06-24T13:51:23.808Z,26.60
2017-06-24T13:53:52.007Z,26.20
2017-06-24T13:56:20.187Z,26.00
2017-06-24T13:58:48.492Z,26.20
2017-06-24T14:01:16.684Z,26.50
2017-06-24T14:03:44.866Z,26.60
2017-06-24T14:06:13.114Z,26.50
2017-06-24T14:08:41.331Z,26.30
2017-06-24T14:11:10.291Z,26.60
2017-06-24T14:13:38.595Z,26.50
2017-06-24T14:16:07.081Z,26.60
2017-06-24T14:18:36.178Z,27.00
2017-06-24T14:21:05.403Z,27.00
2017-06-24T14:23:33.589Z,27.00
2017-06-24T14:26:01.783Z,26.90
2017-06-24T14:28:30.035Z,26.80
2017-06-24T14:30:58.214Z,26.90
2017-06-24T14:33:26.401Z,26.90
2017-06-24T14:35:55.166Z,26.80
2017-06-24T14:38:23.353Z,26.70
2017-06-24T14:40:51.596Z,26.80
2017-06-24T14:43:19.948Z,26.70
2017-06-24T14:45:48.330Z,26.90
2017-06-24T14:48:17.399Z,27.40
2017-06-24T14:50:45.587Z,27.40
2017-06-24T14:53:14.577Z,27.10
2017-06-24T14:55:43.623Z,27.40
2017-06-24T14:58:11.817Z,27.30
2017-06-24T15:00:40.035Z,27.20
2017-06-24T15:03:09.081Z,27.20
2017-06-24T15:05:37.247Z,27.20
2017-06-24T15:08:05.459Z,27.20
2017-06-24T15:10:34.413Z,27.00
2017-06-24T15:13:02.669Z,27.00
2017-06-24T15:15:31.898Z,27.50
2017-06-24T15:18:00.199Z,27.50
2017-06-24T15:20:29.129Z,27.20
2017-06-24T15:22:57.299Z,27.20
2017-06-24T15:25:25.523Z,27.50
2017-06-24T15:27:53.696Z,27.20
2017-06-24T15:30:22.638Z,27.50
2017-06-24T15:32:50.929Z,27.40
2017-06-24T15:35:19.111Z,27.30
2017-06-24T15:37:47.310Z,27.20
2017-06-24T15:40:15.594Z,27.10
2017-06-24T15:42:44.627Z,27.10
2017-06-24T15:45:12.883Z,27.00
2017-06-24T15:47:41.096Z,27.20
2017-06-24T15:50:09.296Z,26.90
2017-06-24T15:52:37.576Z,26.90
2017-06-24T15:55:05.823Z,27.00
2017-06-24T15:57:33.997Z,27.10
2017-06-24T16:00:02.220Z,27.10
2017-06-24T16:02:30.396Z,27.20
2017-06-24T16:04:58.596Z,27.00
2017-06-24T16:07:26.871Z,27.10
2017-06-24T16:09:55.064Z,27.30
2017-06-24T16:12:23.523Z,27.00
2017-06-24T16:14:51.759Z,27.00
2017-06-24T16:17:20.700Z,27.10
2017-06-24T16:19:48.956Z,27.00
2017-06-24T16:22:17.137Z,26.90
2017-06-24T16:24:45.309Z,27.10
2017-06-24T16:27:13.564Z,27.00
2017-06-24T16:29:41.764Z,27.00
2017-06-24T16:32:09.993Z,27.10
2017-06-24T16:34:38.929Z,27.10
2017-06-24T16:37:07.147Z,27.10
2017-06-24T16:39:35.362Z,26.80
2017-06-24T16:42:03.867Z,26.90
2017-06-24T16:44:32.096Z,27.00
2017-06-24T16:47:00.406Z,26.70
2017-06-24T16:49:28.589Z,26.90
2017-06-24T16:51:56.867Z,26.90
2017-06-24T16:54:25.104Z,26.90
2017-06-24T16:56:53.308Z,26.70
2017-06-24T16:59:21.530Z,26.80
2017-06-24T17:01:50.490Z,26.50
2017-06-24T17:04:18.661Z,26.50
2017-06-24T17:06:46.955Z,26.70
2017-06-24T17:09:15.901Z,26.90
2017-06-24T17:11:44.120Z,26.80
2017-06-24T17:14:12.355Z,26.70
2017-06-24T17:16:40.567Z,26.70
2017-06-24T17:19:08.807Z,26.70
2017-06-24T17:21:37.005Z,26.70
2017-06-24T17:24:05.206Z,26.50
2017-06-24T17:26:34.151Z,26.40
2017-06-24T17:29:02.484Z,26.40
2017-06-24T17:31:30.759Z,26.40
2017-06-24T17:33:59.069Z,26.30
2017-06-24T17:36:27.323Z,26.30
2017-06-24T17:38:59.475Z,26.20
2017-06-24T17:41:27.680Z,26.30
2017-06-24T17:43:55.900Z,26.20
2017-06-24T17:46:24.885Z,26.30
2017-06-24T17:48:53.858Z,26.00
2017-06-24T17:51:22.105Z,26.00
2017-06-24T17:53:50.354Z,26.10
2017-06-24T17:56:18.573Z,26.00
2017-06-24T17:58:46.762Z,25.90
2017-06-24T18:01:15.086Z,25.80
2017-06-24T18:03:43.350Z,25.70
2017-06-24T18:06:11.690Z,25.80
2017-06-24T18:08:41.441Z,25.60
2017-06-24T18:11:10.039Z,25.60
2017-06-24T18:13:38.280Z,25.50
2017-06-24T18:16:06.477Z,25.50
2017-06-24T18:18:34.707Z,25.50
2017-06-24T18:21:02.916Z,25.40
2017-06-24T18:23:31.100Z,25.40
2017-06-24T18:25:59.323Z,25.30
2017-06-24T18:28:27.543Z,25.20
2017-06-24T18:30:55.776Z,25.20
2017-06-24T18:33:24.006Z,25.10
2017-06-24T18:35:52.185Z,25.10
2017-06-24T18:38:20.433Z,25.00
2017-06-24T18:40:48.707Z,24.90
2017-06-24T18:43:16.915Z,24.80
2017-06-24T18:45:45.174Z,24.70
2017-06-24T18:48:13.750Z,24.80
2017-06-24T18:50:41.956Z,24.70
2017-06-24T18:53:10.167Z,24.70
2017-06-24T18:55:39.180Z,24.40
2017-06-24T18:58:07.377Z,24.40
2017-06-24T19:00:35.639Z,24.40
2017-06-24T19:03:03.833Z,24.30
2017-06-24T19:05:32.033Z,24.20
2017-06-24T19:08:01.052Z,24.10
2017-06-24T19:10:29.348Z,24.10
2017-06-24T19:12:57.575Z,24.10
2017-06-24T19:15:25.811Z,24.00
2017-06-24T19:17:54.035Z,23.90
2017-06-24T19:20:23.070Z,23.60
2017-06-24T19:22:51.347Z,23.60
2017-06-24T19:25:19.529Z,23.60
2017-06-24T19:27:47.776Z,23.50
2017-06-24T19:30:16.001Z,23.40
2017-06-24T19:32:44.178Z,23.30
2017-06-24T19:35:12.467Z,23.30
2017-06-24T19:37:40.651Z,23.20
2017-06-24T19:40:09.627Z,23.10
2017-06-24T19:42:37.970Z,23.10
2017-06-24T19:45:06.301Z,23.10
2017-06-24T19:47:34.521Z,23.00
2017-06-24T19:50:02.838Z,22.90
2017-06-24T19:52:31.985Z,22.70
2017-06-24T19:55:00.368Z,22.70
2017-06-24T19:57:28.552Z,22.60
2017-06-24T19:59:56.827Z,22.50
2017-06-24T20:02:25.092Z,22.50
2017-06-24T20:04:53.276Z,22.40
2017-06-24T20:07:21.548Z,22.40
2017-06-24T20:09:49.767Z,22.30
2017-06-24T20:12:18.762Z,22.10
2017-06-24T20:14:46.985Z,22.10
2017-06-24T20:17:15.188Z,22.10
2017-06-24T20:19:44.264Z,21.90
2017-06-24T20:22:12.583Z,21.90
2017-06-24T20:24:41.543Z,21.60
2017-06-24T20:27:09.755Z,21.60
2017-06-24T20:29:38.007Z,21.50
2017-06-24T20:32:06.346Z,21.40
2017-06-24T20:34:34.594Z,21.40
2017-06-24T20:37:02.895Z,21.20
2017-06-24T20:39:31.149Z,21.20
2017-06-24T20:41:59.400Z,21.20
2017-06-24T20:44:27.730Z,21.00
2017-06-24T20:46:55.946Z,20.90
2017-06-24T20:49:24.183Z,20.90
2017-06-24T20:51:52.388Z,20.90
2017-06-24T20:54:21.380Z,20.70
2017-06-24T20:56:50.388Z,20.60
2017-06-24T20:59:18.558Z,20.60
2017-06-24T21:01:46.872Z,20.60
2017-06-24T21:04:15.233Z,20.60
2017-06-24T21:06:43.437Z,20.50
2017-06-24T21:09:11.751Z,20.30
2017-06-24T21:11:40.796Z,20.30
2017-06-24T21:14:08.984Z,20.30
2017-06-24T21:16:37.235Z,20.30
2017-06-24T21:19:05.568Z,20.30
2017-06-24T21:21:33.774Z,20.30
2017-06-24T21:24:02.144Z,20.20
2017-06-24T21:26:30.373Z,20.10
2017-06-24T21:28:59.388Z,19.90
2017-06-24T21:31:28.637Z,19.70
2017-06-24T21:33:56.949Z,19.70
2017-06-24T21:36:26.045Z,19.20
2017-06-24T21:38:55.041Z,18.90
2017-06-24T21:41:23.304Z,18.90
2017-06-24T21:43:52.354Z,18.50
2017-06-24T21:46:20.601Z,18.50
2017-06-24T21:48:48.786Z,18.40
2017-06-24T21:51:16.956Z,18.50
2017-06-24T21:53:45.183Z,18.60
2017-06-24T21:56:14.145Z,19.00
2017-06-24T21:58:42.330Z,18.90
2017-06-24T22:01:10.553Z,19.00
2017-06-24T22:03:38.734Z,19.20
2017-06-24T22:06:07.027Z,19.20
2017-06-24T22:08:35.319Z,19.20
2017-06-24T22:11:03.579Z,19.20
2017-06-24T22:13:31.796Z,19.00
2017-06-24T22:16:00.036Z,18.80
2017-06-24T22:18:28.238Z,18.60
2017-06-24T22:20:56.468Z,18.60
2017-06-24T22:23:24.738Z,18.60
2017-06-24T22:25:52.944Z,18.50
2017-06-24T22:28:21.159Z,18.60
2017-06-24T22:30:49.398Z,18.70
2017-06-24T22:33:17.616Z,18.70
2017-06-24T22:35:45.836Z,18.80
2017-06-24T22:38:14.265Z,18.70
2017-06-24T22:40:42.464Z,18.50
2017-06-24T22:43:10.639Z,18.50
2017-06-24T22:45:38.864Z,18.40
2017-06-24T22:48:07.815Z,18.50
2017-06-24T22:50:36.012Z,18.40
2017-06-24T22:53:04.232Z,18.40
2017-06-24T22:55:32.576Z,18.40
2017-06-24T22:58:01.722Z,18.30
2017-06-24T23:00:29.904Z,18.30
2017-06-24T23:02:58.135Z,18.30
2017-06-24T23:05:26.362Z,18.20
2017-06-24T23:07:54.701Z,18.20
2017-06-24T23:10:23.018Z,18.30
2017-06-24T23:12:51.215Z,18.30
2017-06-24T23:15:19.554Z,18.50
2017-06-24T23:17:48.113Z,18.50
2017-06-24T23:20:16.423Z,18.60
2017-06-24T23:22:44.632Z,18.40
2017-06-24T23:25:13.020Z,18.10
2017-06-24T23:27:41.979Z,18.10
2017-06-24T23:30:10.199Z,18.00
2017-06-24T23:32:38.459Z,18.20
2017-06-24T23:35:07.421Z,18.20
2017-06-24T23:37:35.616Z,18.20
2017-06-24T23:40:04.604Z,18.20
2017-06-24T23:42:32.846Z,18.20
2017-06-24T23:45:01.023Z,18.00
2017-06-24T23:47:29.242Z,18.00
2017-06-24T23:49:57.486Z,18.00
2017-06-24T23:52:25.683Z,17.90
2017-06-24T23:54:54.684Z,17.70
2017-06-24T23:57:22.963Z,17.70
2017-06-24T23:59:51.180Z,17.50
